Have a Safe July 4th! 

Flight Track Log - Related Links

Times and Time Zones

All times are in EDT time to prevent confusion due to time zone crossing. See the UCA3596 flight status page for this flight to view local times or setup timezone preferences in your user account.

Time Position Orientation Groundspeed Altitude Reporting Facility
EDT Latitude Longitude Course Direction KTS MPH feet Rate Location/Type
Mon 01:38:00 PM 39.4805 -77.2282 19° North  Level Estimated
Mon 01:39:00 PM 39.5566 -77.1948 19° North  Level Estimated
Mon 01:40:00 PM 39.6327 -77.1613 19° North  Level Estimated
Mon 01:41:00 PM 39.7088 -77.1277 19° North  Level Estimated
Mon 01:42:00 PM 39.7849 -77.0941 19° North  Level Estimated
Mon 01:43:00 PM 39.8610 -77.0604 19° North  Level Estimated
Mon 01:44:00 PM 39.9371 -77.0266 19° North  Level Estimated
Mon 01:45:00 PM 40.0131 -76.9928 19° North  Level Estimated
Mon 01:46:00 PM 40.0892 -76.9589 19° North  Level Estimated
Mon 01:47:00 PM 40.1652 -76.9249 19° North  Level Estimated
Mon 01:48:00 PM 40.2412 -76.8908 19° North  Level Estimated
Mon 01:49:00 PM 40.3173 -76.8566 19° North  Level Estimated
Mon 01:50:00 PM 40.3933 -76.8224 19° North  Level Estimated
Mon 01:51:00 PM 40.4693 -76.7881 19° North  Level Estimated
Mon 01:52:00 PM 40.5453 -76.7537 19° North  Level Estimated
Mon 01:53:00 PM 40.6213 -76.7193 19° North  Level Estimated
Mon 01:54:00 PM 40.6972 -76.6847 19° North  Level Estimated
Mon 01:55:00 PM 40.7732 -76.6501 19° North  Level Estimated
Mon 01:56:00 PM 40.8491 -76.6154 19° North  Level Estimated
Mon 01:57:00 PM 40.9250 -76.5806 19° North  Level Estimated
Mon 01:58:00 PM 41.0010 -76.5458 19° North  Level Estimated
Mon 01:59:00 PM 41.0769 -76.5108 19° North  Level Estimated
Mon 02:00:00 PM 41.1528 -76.4758 19° North  Level Estimated
Mon 02:01:00 PM 41.2287 -76.4407 19° North  Level Estimated
Mon 02:02:00 PM 41.3046 -76.4055 19° North  Level Estimated
Mon 02:03:00 PM 41.3804 -76.3703 19° North  Level Estimated
Mon 02:04:00 PM 41.4563 -76.3349 19° North  Level Estimated
Mon 02:05:00 PM 41.5321 -76.2995 19° North  Level Estimated
Mon 02:06:00 PM 41.6080 -76.2640 19° North  Level Estimated
Mon 02:07:00 PM 41.6838 -76.2284 19° North  Level Estimated
Mon 02:08:00 PM 41.7596 -76.1927 19° North  Level Estimated
Mon 02:09:00 PM 41.8354 -76.1569 19° North  Level Estimated
Mon 02:10:00 PM 41.9112 -76.1211 19° North  Level Estimated
Mon 02:11:00 PM 41.9870 -76.0851 19° North  Level Estimated
Mon 02:12:00 PM 42.0628 -76.0491 19° North  Level Estimated
Mon 02:13:00 PM 42.1385 -76.0130 19° North  Level Estimated
Mon 02:14:00 PM 42.2084 -75.9796 19° North  Level Estimated
Mon 02:15:00 PM 42.2084 -75.9796 35° Northeast  Level Estimated
Mon 02:16:00 PM 42.2084 -75.9796 35° Northeast  Level Estimated
Mon 02:17:00 PM 42.2084 -75.9796 35° Northeast  Level Estimated
Mon 02:18:00 PM 42.2084 -75.9796 35° Northeast  Level Estimated
Mon 02:19:00 PM 42.2084 -75.9796 35° Northeast  Level Estimated
Mon 02:20:00 PM 42.2084 -75.9796 35° Northeast  Level Estimated
Mon 02:21:00 PM 42.2084 -75.9796 35° Northeast  Level Estimated
Mon 02:22:00 PM 42.2084 -75.9796 35° Northeast  Level Estimated
Mon 02:23:00 PM 42.2084 -75.9796 35° Northeast  Level Estimated
Mon 02:24:00 PM 42.2084 -75.9796 35° Northeast  Level Estimated
Mon 02:25:00 PM 42.2084 -75.9796 35° Northeast  Level Estimated
Mon 02:26:00 PM 42.2084 -75.9796 35° Northeast  Level Estimated
Mon 02:27:00 PM 42.2084 -75.9796 35° Northeast  Level Estimated
Mon 02:28:00 PM 42.2084 -75.9796 35° Northeast  Level Estimated
Mon 02:29:00 PM 42.2084 -75.9796 35° Northeast  Level Estimated
Mon 02:30:00 PM 42.2084 -75.9796 35° Northeast  Level Estimated

Login

Don't have an account? Register now (free) for customized features, flight alerts, and more!